Terminal Aerodrome Forecast
Issued by NWS Albany, NY

Home | Current Version | Previous Version | Text Only | Print | Product List | Glossary On
Versions: 1 2 3 4 5 6 7 8 9 10 11 12 13
991
FTUS41 KALY 011127
TAFGFL
TAF
KGFL 011127Z 0112/0212 00000KT P6SM VCSH BKN060 OVC080
     FM011400 15004KT 6SM -RA BR SCT025 OVC050
     FM011700 16006KT 4SM -RA BR OVC025
     FM012000 15006KT 4SM -RA BR OVC015
     FM020000 16007KT 5SM -DZ BR BKN007 OVC015
     FM020600 14003KT 6SM BR OVC007=

USA.gov is the U.S. government's official web portal to all federal, state and local government web resources and services.